createdAt,value
2023-01-21T00:03:39.032Z,6.15
2023-01-21T00:07:56.523Z,5.28
2023-01-21T00:12:15.471Z,16.90
2023-01-21T00:16:32.963Z,7.30
2023-01-21T00:20:50.076Z,9.73
2023-01-21T00:25:08.127Z,4.93
2023-01-21T00:29:26.660Z,6.88
2023-01-21T00:33:44.152Z,3.50
2023-01-21T00:38:01.877Z,3.55
2023-01-21T00:42:19.587Z,6.00
2023-01-21T00:46:37.244Z,2.73
2023-01-21T00:50:56.368Z,3.00
2023-01-21T00:55:13.884Z,2.83
2023-01-21T00:59:31.030Z,6.55
2023-01-21T01:03:50.389Z,4.80
2023-01-21T01:08:08.006Z,3.35
2023-01-21T01:12:25.595Z,3.28
2023-01-21T01:16:43.100Z,3.85
2023-01-21T01:21:02.300Z,2.78
2023-01-21T01:25:19.920Z,2.53
2023-01-21T01:29:37.410Z,2.05
2023-01-21T01:33:56.555Z,1.97
2023-01-21T01:38:16.174Z,2.42
2023-01-21T01:42:34.224Z,3.17
2023-01-21T01:46:51.842Z,3.03
2023-01-21T01:51:09.888Z,3.00
2023-01-21T01:55:34.160Z,2.97
2023-01-21T01:59:51.949Z,2.90
2023-01-21T02:04:17.312Z,9.80
2023-01-21T02:08:36.422Z,2.50
2023-01-21T02:12:54.581Z,2.53
2023-01-21T02:17:39.262Z,1.77
2023-01-21T02:22:05.335Z,1.90
2023-01-21T02:27:02.237Z,1.42
2023-01-21T02:32:01.562Z,2.15
2023-01-21T02:36:43.864Z,2.47
2023-01-21T02:41:19.008Z,2.05
2023-01-21T02:46:13.114Z,3.58
2023-01-21T02:50:38.809Z,1.63
2023-01-21T02:55:02.158Z,2.13
2023-01-21T02:59:19.953Z,4.50
2023-01-21T03:03:41.586Z,2.47
2023-01-21T03:08:18.438Z,1.58
2023-01-21T03:12:51.182Z,2.07
2023-01-21T03:17:38.336Z,2.03
2023-01-21T03:21:59.241Z,1.27
2023-01-21T03:26:22.579Z,10.90
2023-01-21T03:30:43.732Z,5.90
2023-01-21T03:35:04.232Z,3.90
2023-01-21T03:39:57.320Z,2.58
2023-01-21T03:44:14.938Z,1.45
2023-01-21T03:49:02.389Z,1.45
2023-01-21T03:53:20.220Z,2.63
2023-01-21T03:57:38.079Z,1.20
2023-01-21T04:01:55.719Z,2.55
2023-01-21T04:06:16.596Z,1.33
2023-01-21T04:10:34.227Z,2.03
2023-01-21T04:14:51.659Z,2.22
2023-01-21T04:19:09.534Z,18.57
2023-01-21T04:23:27.033Z,15.20
2023-01-21T04:27:44.652Z,39.53
2023-01-21T04:32:02.343Z,13.18
2023-01-21T04:36:19.522Z,44.72
2023-01-21T04:40:37.128Z,16.13
2023-01-21T04:44:54.746Z,11.90
2023-01-21T04:49:12.473Z,12.85
2023-01-21T04:53:30.105Z,8.90
2023-01-21T04:57:47.792Z,11.40
2023-01-21T05:02:05.515Z,8.50
2023-01-21T05:06:23.054Z,4.28
2023-01-21T05:10:41.689Z,6.00
2023-01-21T05:14:59.223Z,5.00
2023-01-21T05:19:16.753Z,3.95
2023-01-21T05:23:34.382Z,3.33
2023-01-21T05:27:53.565Z,2.83
2023-01-21T05:32:11.379Z,2.33
2023-01-21T05:36:28.945Z,2.17
2023-01-21T05:40:46.422Z,3.28
2023-01-21T05:45:04.426Z,10.23
2023-01-21T05:49:21.998Z,7.63
2023-01-21T05:53:39.792Z,8.43
2023-01-21T05:57:57.304Z,10.35
2023-01-21T06:02:15.240Z,5.63
2023-01-21T06:06:33.047Z,19.65
2023-01-21T06:10:50.573Z,5.70
2023-01-21T06:15:08.683Z,7.23
2023-01-21T06:19:26.285Z,10.45
2023-01-21T06:23:44.003Z,7.47
2023-01-21T06:28:01.545Z,6.32
2023-01-21T06:32:19.166Z,5.33
2023-01-21T06:36:36.619Z,4.70
2023-01-21T06:40:54.270Z,3.60
2023-01-21T06:45:11.908Z,4.45
2023-01-21T06:49:29.712Z,6.45
2023-01-21T06:53:47.172Z,6.32
2023-01-21T06:58:04.737Z,17.73
2023-01-21T07:02:22.198Z,9.93
2023-01-21T07:06:40.087Z,3.10
2023-01-21T07:10:57.594Z,6.65
2023-01-21T07:15:16.221Z,10.73
2023-01-21T07:19:34.142Z,7.97
2023-01-21T07:23:55.753Z,3.60
2023-01-21T07:28:12.883Z,3.22
2023-01-21T07:32:30.514Z,3.85
2023-01-21T07:36:47.983Z,5.05
2023-01-21T07:41:05.700Z,3.83
2023-01-21T07:45:24.268Z,2.03
2023-01-21T07:49:42.229Z,2.40
2023-01-21T07:53:59.818Z,2.85
2023-01-21T07:58:17.442Z,6.20
2023-01-21T08:02:34.503Z,14.75
2023-01-21T08:06:57.126Z,3.78
2023-01-21T08:11:14.426Z,2.40
2023-01-21T08:15:32.032Z,4.13
2023-01-21T08:19:49.668Z,3.05
2023-01-21T08:24:07.438Z,2.80
2023-01-21T08:28:25.274Z,4.97
2023-01-21T08:32:42.804Z,7.40
2023-01-21T08:37:00.400Z,3.15
2023-01-21T08:41:18.043Z,4.13
2023-01-21T08:45:35.532Z,2.13
2023-01-21T08:49:53.449Z,3.40
2023-01-21T08:54:11.153Z,5.53
2023-01-21T08:58:30.935Z,5.43
2023-01-21T09:02:50.693Z,6.45
2023-01-21T09:07:09.175Z,2.70
2023-01-21T09:11:29.257Z,17.67
2023-01-21T09:15:47.329Z,5.03
2023-01-21T09:20:05.335Z,9.05
2023-01-21T09:28:44.119Z,10.77
2023-01-21T09:33:01.567Z,9.25
2023-01-21T09:37:19.115Z,4.50
2023-01-21T09:41:50.846Z,8.75
2023-01-21T09:46:32.320Z,14.00
2023-01-21T09:50:52.017Z,6.30
2023-01-21T09:55:47.175Z,6.25
2023-01-21T10:00:18.296Z,8.88
2023-01-21T10:04:48.218Z,13.00
2023-01-21T10:09:45.687Z,13.30
2023-01-21T10:14:44.918Z,5.07
2023-01-21T10:19:04.583Z,7.18
2023-01-21T10:23:49.775Z,16.58
2023-01-21T10:28:30.620Z,5.22
2023-01-21T10:32:52.180Z,3.55
2023-01-21T10:37:46.209Z,7.85
2023-01-21T10:42:31.777Z,15.07
2023-01-21T10:47:05.625Z,38.50
2023-01-21T10:52:18.521Z,18.10
2023-01-21T10:56:59.525Z,5.15
2023-01-21T11:01:34.752Z,7.28
2023-01-21T11:05:52.424Z,11.05
2023-01-21T11:10:22.695Z,33.28
2023-01-21T11:14:40.200Z,15.23
2023-01-21T11:18:58.590Z,45.05
2023-01-21T11:23:54.628Z,22.38
2023-01-21T11:28:27.375Z,8.93
2023-01-21T11:32:44.874Z,8.45
2023-01-21T11:37:08.287Z,11.63
2023-01-21T11:41:25.984Z,22.25
2023-01-21T11:45:43.902Z,14.25
2023-01-21T11:50:16.637Z,15.48
2023-01-21T11:54:39.739Z,25.70
2023-01-21T11:58:57.541Z,18.98
2023-01-21T12:03:18.903Z,33.35
2023-01-21T12:07:40.807Z,14.38
2023-01-21T12:12:27.032Z,24.95
2023-01-21T12:17:01.274Z,60.30
2023-01-21T12:21:43.565Z,60.15
2023-01-21T12:26:14.434Z,45.00
2023-01-21T12:30:53.638Z,29.32
2023-01-21T12:35:35.711Z,12.75
2023-01-21T12:39:56.728Z,27.85
2023-01-21T12:44:14.112Z,19.58
2023-01-21T12:49:12.724Z,11.83
2023-01-21T12:53:44.792Z,13.85
2023-01-21T12:58:14.786Z,13.85
2023-01-21T13:03:10.536Z,10.02
2023-01-21T13:07:53.816Z,8.65
2023-01-21T13:12:20.517Z,14.77
2023-01-21T13:16:52.890Z,10.73
2023-01-21T13:21:35.061Z,7.57
2023-01-21T13:26:04.304Z,6.20
2023-01-21T13:31:01.492Z,8.75
2023-01-21T13:35:31.915Z,21.38
2023-01-21T13:40:12.808Z,30.80
2023-01-21T13:45:05.603Z,21.08
2023-01-21T13:49:59.636Z,29.95
2023-01-21T13:54:38.824Z,22.90
2023-01-21T13:59:14.160Z,31.05
2023-01-21T14:04:03.266Z,74.13
2023-01-21T14:08:43.536Z,48.65
2023-01-21T14:13:07.092Z,25.92
2023-01-21T14:18:03.480Z,16.85
2023-01-21T14:23:10.549Z,14.25
2023-01-21T14:27:56.643Z,14.70
2023-01-21T14:32:40.169Z,15.05
2023-01-21T14:37:06.515Z,11.63
2023-01-21T14:41:24.048Z,12.65
2023-01-21T14:45:56.104Z,18.38
2023-01-21T14:50:52.249Z,18.40
2023-01-21T14:55:31.333Z,8.13
2023-01-21T14:59:50.800Z,9.27
2023-01-21T15:04:24.524Z,9.85
2023-01-21T15:08:47.543Z,17.35
2023-01-21T15:13:25.861Z,42.22
2023-01-21T15:18:21.012Z,35.05
2023-01-21T15:22:41.397Z,22.75
2023-01-21T15:27:26.131Z,19.05
2023-01-21T15:31:45.059Z,16.85
2023-01-21T15:36:04.252Z,14.63
2023-01-21T15:40:52.931Z,18.55
2023-01-21T15:45:42.326Z,16.63
2023-01-21T15:50:21.221Z,17.15
2023-01-21T15:55:08.856Z,13.88
2023-01-21T15:59:46.401Z,13.40
2023-01-21T16:04:19.553Z,14.45
2023-01-21T16:09:03.387Z,14.55
2023-01-21T16:13:43.537Z,8.98
2023-01-21T16:18:46.786Z,8.63
2023-01-21T16:23:07.481Z,10.50
2023-01-21T16:27:28.668Z,10.00
2023-01-21T16:31:59.758Z,13.48
2023-01-21T16:36:21.275Z,15.70
2023-01-21T16:40:38.984Z,13.85
2023-01-21T16:44:58.635Z,15.20
2023-01-21T16:49:18.064Z,14.93
2023-01-21T16:53:35.568Z,19.63
2023-01-21T16:57:56.719Z,16.70
2023-01-21T17:02:34.198Z,130.48
2023-01-21T17:06:54.112Z,65.30
2023-01-21T17:11:12.786Z,38.60
2023-01-21T17:15:49.146Z,65.43
2023-01-21T17:20:07.429Z,60.80
2023-01-21T17:29:26.542Z,50.08
2023-01-21T17:33:44.144Z,59.27
2023-01-21T17:38:04.723Z,41.92
2023-01-21T17:42:30.527Z,21.15
2023-01-21T17:46:54.369Z,24.10
2023-01-21T17:51:20.452Z,26.88
2023-01-21T17:55:40.580Z,17.15
2023-01-21T17:59:58.458Z,14.50
2023-01-21T18:04:16.010Z,13.63
2023-01-21T18:08:33.764Z,15.90
2023-01-21T18:12:52.411Z,17.63
2023-01-21T18:17:20.987Z,15.93
2023-01-21T18:21:38.643Z,25.27
2023-01-21T18:25:56.680Z,33.70
2023-01-21T18:30:19.260Z,29.48
2023-01-21T18:34:36.943Z,23.20
2023-01-21T18:38:55.112Z,21.58
2023-01-21T18:43:12.978Z,21.10
2023-01-21T18:47:30.725Z,18.40
2023-01-21T18:51:48.434Z,19.73
2023-01-21T18:56:11.734Z,21.67
2023-01-21T19:00:33.555Z,22.38
2023-01-21T19:04:52.553Z,27.60
2023-01-21T19:09:24.414Z,21.15
2023-01-21T19:13:42.131Z,24.45
2023-01-21T19:18:00.149Z,18.02
2023-01-21T19:22:18.269Z,25.42
2023-01-21T19:26:37.507Z,27.38
2023-01-21T19:30:55.728Z,44.33
2023-01-21T19:35:19.151Z,57.30
2023-01-21T19:39:36.748Z,57.70
2023-01-21T19:43:54.522Z,61.10
2023-01-21T19:48:15.016Z,48.45
2023-01-21T19:52:38.402Z,63.22
2023-01-21T19:56:56.309Z,56.33
2023-01-21T20:01:13.944Z,63.22
2023-01-21T20:05:35.725Z,58.85
2023-01-21T20:09:53.251Z,58.13
2023-01-21T20:14:11.611Z,53.15
2023-01-21T20:18:31.252Z,53.95
2023-01-21T20:22:48.927Z,141.77
2023-01-21T20:27:09.548Z,131.50
2023-01-21T20:31:29.562Z,50.95
2023-01-21T20:35:53.416Z,44.47
2023-01-21T20:40:29.159Z,40.65
2023-01-21T20:44:46.835Z,35.85
2023-01-21T20:49:04.402Z,58.03
2023-01-21T20:53:22.025Z,49.55
2023-01-21T20:57:40.188Z,47.70
2023-01-21T21:06:22.116Z,33.92
2023-01-21T21:10:39.751Z,370.38
2023-01-21T21:14:57.208Z,277.65
2023-01-21T21:19:14.807Z,725.70
2023-01-21T21:23:32.455Z,557.85
2023-01-21T21:27:50.414Z,459.77
2023-01-21T21:32:14.132Z,49.00
2023-01-21T21:36:31.713Z,45.65
2023-01-21T21:40:53.361Z,323.85
2023-01-21T21:45:11.273Z,47.72
2023-01-21T21:49:29.505Z,51.03
2023-01-21T21:53:47.292Z,28.65
2023-01-21T21:59:20.639Z,30.35
2023-01-21T22:03:58.278Z,25.13
2023-01-21T22:08:16.521Z,28.20
2023-01-21T22:16:52.213Z,44.07
2023-01-21T22:25:36.267Z,48.80
2023-01-21T22:29:53.798Z,33.47
2023-01-21T22:34:11.899Z,180.85
2023-01-21T22:38:29.641Z,81.43
2023-01-21T22:42:47.252Z,49.28
2023-01-21T22:47:04.943Z,43.67
2023-01-21T22:51:23.682Z,49.70
2023-01-21T22:55:41.649Z,48.85
2023-01-21T23:00:01.019Z,146.43
2023-01-21T23:04:23.485Z,144.05
2023-01-21T23:08:41.103Z,76.97
2023-01-21T23:12:58.814Z,45.90
2023-01-21T23:17:18.971Z,71.85
2023-01-21T23:21:39.036Z,38.15
2023-01-21T23:25:56.672Z,65.60
2023-01-21T23:30:15.343Z,31.05
2023-01-21T23:34:33.094Z,27.90
2023-01-21T23:38:50.795Z,32.50
2023-01-21T23:43:08.290Z,45.08
2023-01-21T23:47:26.066Z,43.28
2023-01-21T23:51:44.016Z,107.65
2023-01-21T23:56:25.462Z,125.97
